createdAt,value
2023-05-06T00:27:46.014Z,23.3
2023-05-06T00:29:49.895Z,19.8
2023-05-06T00:31:53.842Z,27.5
2023-05-06T00:36:01.565Z,20.5
2023-05-06T00:38:05.443Z,26.7
2023-05-06T00:40:12.122Z,19.4
2023-05-06T00:42:16.002Z,23.4
2023-05-06T00:44:19.891Z,18.8
2023-05-06T00:46:23.929Z,22.4
2023-05-06T00:48:27.646Z,22
2023-05-06T00:50:32.205Z,23.1
2023-05-06T00:52:36.081Z,20.7
2023-05-06T00:54:42.765Z,24
2023-05-06T00:56:46.640Z,25.5
2023-05-06T00:58:50.514Z,20.6
2023-05-06T01:01:57.727Z,25.2
2023-05-06T01:04:01.737Z,26.4
2023-05-06T01:06:05.468Z,24
2023-05-06T01:12:19.885Z,20.4
2023-05-06T01:14:23.755Z,25.8
2023-05-06T01:18:31.493Z,29.1
2023-05-06T01:20:35.364Z,19.2
2023-05-06T01:22:42.109Z,29.9
2023-05-06T01:26:49.806Z,29
2023-05-06T01:28:53.700Z,37.3
2023-05-06T01:41:19.739Z,39.3
2023-05-06T01:43:23.630Z,32
2023-05-06T01:49:36.689Z,40.3
2023-05-06T01:51:43.396Z,53
2023-05-06T01:53:47.278Z,36
2023-05-06T01:55:51.146Z,36.9
2023-05-06T01:56:54.513Z,39.8
2023-05-06T02:11:24.473Z,23.7
2023-05-06T02:30:02.208Z,33.9
2023-05-06T02:36:16.631Z,35.7
2023-05-06T02:38:20.517Z,34.2
2023-05-06T02:40:24.433Z,31.1
2023-05-06T02:42:28.295Z,33.6
2023-05-06T02:53:53.799Z,45.3
2023-05-06T02:55:57.703Z,32.1
2023-05-06T03:00:05.441Z,33
2023-05-06T03:02:12.157Z,44.6
2023-05-06T03:06:19.910Z,41.3
2023-05-06T03:08:23.795Z,42.5
2023-05-06T03:10:27.672Z,31.6
2023-05-06T03:14:35.445Z,31.1
2023-05-06T03:16:42.191Z,40.9
2023-05-06T03:20:49.937Z,23
2023-05-06T03:22:53.803Z,26.6
2023-05-06T03:31:12.209Z,42.9
2023-05-06T03:33:16.083Z,22.7
2023-05-06T03:35:19.973Z,24.2
2023-05-06T03:39:27.748Z,32.3
2023-05-06T03:41:31.618Z,24.3
2023-05-06T03:43:35.517Z,30.3
2023-05-06T03:45:42.246Z,34.9
2023-05-06T03:47:46.240Z,27.2
2023-05-06T03:49:50.036Z,24.9
2023-05-06T03:52:08.278Z,32.1
2023-05-06T03:56:16.041Z,28.7
2023-05-06T03:58:22.750Z,25.9
2023-05-06T04:00:26.645Z,30.8
2023-05-06T04:02:30.638Z,27.9
2023-05-06T04:04:34.440Z,21.7
2023-05-06T04:08:42.180Z,30.2
2023-05-06T04:12:52.855Z,32.7
2023-05-06T04:14:56.657Z,26.4
2023-05-06T04:17:00.548Z,21.2
2023-05-06T04:19:06.364Z,20.3
2023-05-06T04:21:08.302Z,22.7
2023-05-06T04:23:12.195Z,25.1
2023-05-06T04:25:16.066Z,22.6
2023-05-06T04:29:26.626Z,27.7
2023-05-06T04:31:30.554Z,23.8
2023-05-06T04:35:38.218Z,25.5
2023-05-06T04:39:45.979Z,22.8
2023-05-06T04:41:52.712Z,29.6
2023-05-06T04:43:56.552Z,25.7
2023-05-06T04:46:00.464Z,33.3
2023-05-06T04:55:22.088Z,31
2023-05-06T04:59:29.850Z,52.6
2023-05-06T05:03:37.663Z,34.8
2023-05-06T05:05:41.470Z,30.2
2023-05-06T05:07:45.326Z,36.8
2023-05-06T05:24:22.040Z,31.1
2023-05-06T05:26:25.933Z,33.9
2023-05-06T05:28:29.830Z,33.4
2023-05-06T05:30:33.728Z,32.2
2023-05-06T05:32:37.700Z,34.9
2023-05-06T05:34:41.528Z,23.7
2023-05-06T05:36:45.440Z,20.3
2023-05-06T05:40:56.086Z,13.9
2023-05-06T05:44:03.375Z,16
2023-05-06T05:46:07.298Z,16.9
2023-05-06T05:48:11.214Z,15.9
2023-05-06T05:50:15.142Z,15.4
2023-05-06T05:52:21.860Z,12.1
2023-05-06T05:54:25.770Z,16.6
2023-05-06T05:56:29.663Z,12
2023-05-06T05:58:33.580Z,16
2023-05-06T06:00:37.495Z,15.9
2023-05-06T06:04:45.389Z,17.5
2023-05-06T06:13:03.873Z,16.8
2023-05-06T06:15:07.825Z,20.5
2023-05-06T06:17:11.617Z,17.4
2023-05-06T06:19:15.546Z,19.3
2023-05-06T06:21:22.255Z,23.5
2023-05-06T06:35:52.520Z,17.7
2023-05-06T06:37:56.474Z,11.4
2023-05-06T06:40:00.391Z,14.5
2023-05-06T06:41:03.758Z,13.6
2023-05-06T06:49:22.275Z,13.8
2023-05-06T06:51:26.161Z,12.9
2023-05-06T06:53:30.073Z,17.3
2023-05-06T06:59:41.793Z,18
2023-05-06T07:01:45.771Z,17.5
2023-05-06T07:03:52.501Z,13.2
2023-05-06T07:05:56.363Z,15.3
2023-05-06T07:10:04.186Z,14.1
2023-05-06T07:12:08.124Z,18.4
2023-05-06T07:14:12.006Z,12.3
2023-05-06T07:16:15.939Z,16.1
2023-05-06T07:26:38.291Z,14.8
2023-05-06T07:30:46.149Z,14.1
2023-05-06T07:32:52.883Z,14.9
2023-05-06T07:34:56.764Z,13.7
2023-05-06T07:37:00.677Z,15.5
2023-05-06T07:39:24.391Z,23
2023-05-06T07:41:28.304Z,15.3
2023-05-06T07:43:33.723Z,13.2
2023-05-06T08:00:10.689Z,18.1
2023-05-06T08:02:14.688Z,19.3
2023-05-06T08:04:18.599Z,18.1
2023-05-06T08:06:22.446Z,18.6
2023-05-06T08:08:26.351Z,18.6
2023-05-06T08:10:30.291Z,18.6
2023-05-06T08:12:34.254Z,16.1
2023-05-06T08:16:44.985Z,21.5
2023-05-06T08:18:48.785Z,18.3
2023-05-06T08:20:52.756Z,18
2023-05-06T08:22:56.637Z,19.7
2023-05-06T08:25:00.574Z,21.5
2023-05-06T08:27:04.484Z,18.5
2023-05-06T08:29:11.226Z,21
2023-05-06T08:31:15.198Z,17.7
2023-05-06T08:34:22.443Z,21.1
2023-05-06T08:40:34.180Z,19.5
2023-05-06T08:44:44.859Z,25.5
2023-05-06T08:46:48.780Z,19.6
2023-05-06T08:48:52.686Z,21.4
2023-05-06T08:50:56.606Z,23.3
2023-05-06T08:53:00.515Z,29.2
2023-05-06T08:55:04.428Z,16.7
2023-05-06T08:57:12.511Z,20.7
2023-05-06T08:59:15.094Z,23.4
2023-05-06T09:03:23.014Z,17.7
2023-05-06T09:07:30.672Z,18.8
2023-05-06T09:09:34.567Z,17.1
2023-05-06T09:22:00.922Z,17.3
2023-05-06T09:24:04.841Z,17.5
2023-05-06T09:30:19.348Z,16.4
2023-05-06T09:31:22.709Z,18.9
2023-05-06T09:33:26.590Z,10
2023-05-06T09:35:30.420Z,11.6
2023-05-06T09:37:34.337Z,17.4
2023-05-06T09:39:41.002Z,18.3
2023-05-06T09:41:44.908Z,18.5
2023-05-06T09:43:48.750Z,19.1
2023-05-06T09:52:04.226Z,13.1
2023-05-06T09:56:14.825Z,19.7
2023-05-06T09:58:18.680Z,13.2
2023-05-06T10:00:22.568Z,11.3
2023-05-06T10:02:26.496Z,9.8
2023-05-06T10:06:34.175Z,13.5
2023-05-06T10:08:40.881Z,13.4
2023-05-06T10:10:44.752Z,18.5
2023-05-06T10:14:52.496Z,12.1
2023-05-06T10:16:56.353Z,12.2
2023-05-06T10:19:00.233Z,9.2
2023-05-06T10:21:04.093Z,8.9
2023-05-06T10:23:10.795Z,16
2023-05-06T10:25:14.659Z,9.4
2023-05-06T10:27:18.538Z,11
2023-05-06T10:36:40.166Z,9.9
2023-05-06T10:38:44.022Z,9
2023-05-06T10:40:47.890Z,11.7
2023-05-06T10:51:10.007Z,8.8
2023-05-06T10:53:13.865Z,15
2023-05-06T11:01:29.405Z,14.5
2023-05-06T11:05:39.924Z,8.6
2023-05-06T11:09:47.661Z,6.5
2023-05-06T11:11:51.507Z,11.2
2023-05-06T11:13:55.385Z,7.5
2023-05-06T11:20:10.014Z,9.6
2023-05-06T11:22:13.755Z,11.2
2023-05-06T11:24:17.600Z,5.3
2023-05-06T11:28:51.018Z,10.1
2023-05-06T11:37:09.329Z,10.9
2023-05-06T11:47:31.540Z,5.3
2023-05-06T11:51:39.261Z,5.5
2023-05-06T11:53:43.125Z,6
2023-05-06T11:55:47.124Z,5.5
2023-05-06T11:57:50.869Z,11.7
2023-05-06T11:59:54.759Z,8
2023-05-06T12:04:05.877Z,8.3
2023-05-06T12:06:09.233Z,9.5
2023-05-06T12:08:23.568Z,5.9
2023-05-06T12:10:16.982Z,3.1
2023-05-06T12:12:20.849Z,5.3
2023-05-06T12:14:24.718Z,15.9
2023-05-06T12:16:31.492Z,7.1
2023-05-06T12:18:35.334Z,10.3
2023-05-06T12:20:39.203Z,7.1
2023-05-06T12:21:42.560Z,6.1
2023-05-06T12:23:46.453Z,9.3
2023-05-06T12:25:50.305Z,5.7
2023-05-06T12:30:00.929Z,3.9
2023-05-06T12:32:04.789Z,4.9
2023-05-06T12:34:08.626Z,4.4
2023-05-06T12:36:12.481Z,3.1
2023-05-06T12:40:20.201Z,5.2
2023-05-06T12:42:24.064Z,4.4
2023-05-06T12:48:38.529Z,3.8
2023-05-06T12:56:53.929Z,4.7
2023-05-06T12:59:00.648Z,10.6
2023-05-06T13:01:04.575Z,5.1
2023-05-06T13:05:12.235Z,4.6
2023-05-06T13:07:16.086Z,4.4
2023-05-06T13:09:19.931Z,7
2023-05-06T13:11:23.835Z,3.7
2023-05-06T13:18:41.623Z,4.6
2023-05-06T13:20:45.472Z,7.7
2023-05-06T13:22:54.672Z,6.5
2023-05-06T13:24:53.223Z,12.7
2023-05-06T13:31:07.776Z,8.2
2023-05-06T13:33:11.570Z,3.1
2023-05-06T13:37:19.321Z,8.3
2023-05-06T13:39:23.211Z,6.3
2023-05-06T13:41:31.407Z,2.7
2023-05-06T13:43:35.263Z,5.5
2023-05-06T13:45:39.152Z,3.2
2023-05-06T13:47:43.084Z,7.6
2023-05-06T13:49:46.895Z,5.3
2023-05-06T13:53:54.674Z,4.4
2023-05-06T13:56:01.437Z,7.8
2023-05-06T13:58:05.309Z,4.8
2023-05-06T14:00:09.150Z,4.8
2023-05-06T14:02:13.335Z,2.6
2023-05-06T14:10:31.444Z,7.1
2023-05-06T14:24:00.921Z,3.8
2023-05-06T14:26:04.823Z,3.8
2023-05-06T14:28:09.207Z,6.7
2023-05-06T14:30:13.089Z,4.5
2023-05-06T14:32:16.985Z,7.6
2023-05-06T14:34:20.872Z,3.9
2023-05-06T14:40:35.408Z,5.3
2023-05-06T14:42:39.308Z,2.9
2023-05-06T14:44:43.192Z,4
2023-05-06T14:46:47.106Z,2.2
2023-05-06T14:48:50.985Z,11
2023-05-06T14:50:54.903Z,2.1
2023-05-06T14:53:03.788Z,3.5
2023-05-06T14:55:05.535Z,12
2023-05-06T14:57:09.430Z,5.7
2023-05-06T14:59:13.315Z,2.8
2023-05-06T15:01:17.288Z,5.4
2023-05-06T15:03:21.110Z,7.4
2023-05-06T15:05:25.043Z,5.4
2023-05-06T15:07:31.755Z,6.1
2023-05-06T15:09:35.644Z,6.4
2023-05-06T15:11:39.553Z,6.6
2023-05-06T15:14:09.153Z,3.4
2023-05-06T15:16:13.097Z,4.7
2023-05-06T15:18:16.955Z,4.8
2023-05-06T15:20:23.690Z,7.8
2023-05-06T15:22:27.572Z,3.7
2023-05-06T15:24:31.471Z,5.8
2023-05-06T15:26:35.393Z,4.5
2023-05-06T15:28:39.265Z,8.4
2023-05-06T15:30:43.159Z,7.8
2023-05-06T15:51:27.792Z,5.9
2023-05-06T15:53:31.693Z,9.3
2023-05-06T15:55:44.504Z,5.9
2023-05-06T15:57:39.462Z,5.3
2023-05-06T15:59:43.355Z,5.4
2023-05-06T16:03:54.085Z,5.8
2023-05-06T16:05:57.900Z,7.6
2023-05-06T16:08:01.784Z,4.4
2023-05-06T16:09:05.169Z,13.5
2023-05-06T16:11:09.062Z,7.6
2023-05-06T16:21:31.429Z,8.1
2023-05-06T16:23:35.328Z,10.1
2023-05-06T16:27:43.141Z,21.2
2023-05-06T16:29:47.063Z,20.3
2023-05-06T16:31:53.848Z,21
2023-05-06T16:33:57.724Z,9.7
2023-05-06T16:38:05.561Z,8.5
2023-05-06T16:40:09.613Z,7.5
2023-05-06T16:42:13.346Z,11.8
2023-05-06T16:44:17.270Z,15.8
2023-05-06T16:46:24.720Z,17.3
2023-05-06T16:48:28.053Z,7.1
2023-05-06T16:50:31.860Z,13
2023-05-06T16:52:35.786Z,9.1
2023-05-06T16:54:39.720Z,4.7
2023-05-06T16:56:51.317Z,10.8
2023-05-06T16:58:47.584Z,7.6
2023-05-06T17:00:54.379Z,7.8
2023-05-06T17:06:05.596Z,10.5
2023-05-06T17:08:10.707Z,6.5
2023-05-06T17:10:13.622Z,6.8
2023-05-06T17:14:24.157Z,8.7
2023-05-06T17:16:28.107Z,7.4
2023-05-06T17:20:51.545Z,15.4
2023-05-06T17:26:47.744Z,21.5
2023-05-06T17:28:54.499Z,11.3
2023-05-06T17:35:06.314Z,12.5
2023-05-06T17:37:10.216Z,15.7
2023-05-06T17:39:14.158Z,18.7
2023-05-06T17:41:18.089Z,18.4
2023-05-06T17:43:24.827Z,19.2
2023-05-06T17:47:32.703Z,25.1
2023-05-06T17:57:55.160Z,24.1
2023-05-06T17:59:59.096Z,26.4
2023-05-06T18:09:18.189Z,22.6
2023-05-06T18:25:55.245Z,21.6
2023-05-06T18:27:59.151Z,26.4
2023-05-06T18:30:03.096Z,26
2023-05-06T18:32:07.160Z,25.5
2023-05-06T18:34:10.954Z,38.8
2023-05-06T18:36:14.887Z,25.1
2023-05-06T18:48:41.288Z,11.9
2023-05-06T18:50:45.214Z,11.7
2023-05-06T18:52:49.149Z,13.2
2023-05-06T18:54:55.922Z,13.1
2023-05-06T18:56:59.882Z,17.8
2023-05-06T18:59:03.773Z,15.3
2023-05-06T19:01:33.541Z,10.8
2023-05-06T19:03:37.416Z,10.9
2023-05-06T19:05:41.314Z,7.2
2023-05-06T19:07:48.045Z,17.1
2023-05-06T19:09:51.959Z,7.2
2023-05-06T19:11:55.898Z,11.9
2023-05-06T19:13:59.846Z,15.2
2023-05-06T19:22:18.339Z,10.3
2023-05-06T19:24:22.227Z,31.6
2023-05-06T19:26:26.170Z,10.3
2023-05-06T19:28:30.119Z,30.9
2023-05-06T19:30:34.037Z,104.8
2023-05-06T19:32:37.991Z,63.2
2023-05-06T19:34:41.897Z,13.7
2023-05-06T19:36:50.212Z,15.3
2023-05-06T19:38:54.034Z,15.7
2023-05-06T19:40:57.987Z,20.3
2023-05-06T19:43:01.906Z,22.6
2023-05-06T19:45:05.839Z,22.3
2023-05-06T19:47:09.766Z,12.1
2023-05-06T19:53:24.381Z,14.9
2023-05-06T19:55:28.301Z,18.2
2023-05-06T19:56:31.672Z,20.3
2023-05-06T19:58:35.603Z,14.7
2023-05-06T20:02:43.538Z,10.4
2023-05-06T20:04:50.235Z,12.1
2023-05-06T20:06:54.156Z,11.9
2023-05-06T20:08:58.066Z,17.1
2023-05-06T20:11:01.992Z,19.2
2023-05-06T20:13:06.002Z,31.7
2023-05-06T20:15:10.009Z,14.7
2023-05-06T20:17:13.786Z,15
2023-05-06T20:21:24.484Z,9.1
2023-05-06T20:23:28.366Z,8.2
2023-05-06T20:25:32.346Z,8.8
2023-05-06T20:29:40.179Z,16.3
2023-05-06T20:31:44.194Z,13.8
2023-05-06T20:33:50.864Z,33.9
2023-05-06T20:37:58.713Z,26
2023-05-06T20:46:14.498Z,10.9
2023-05-06T20:50:25.086Z,12.9
2023-05-06T20:53:32.393Z,17
2023-05-06T20:55:36.349Z,12.1
2023-05-06T20:57:40.224Z,13.2
2023-05-06T21:01:50.896Z,37.7
2023-05-06T21:20:29.027Z,15.2
2023-05-06T21:22:32.957Z,11.8
2023-05-06T21:24:36.847Z,19
2023-05-06T21:28:45.315Z,12.9
2023-05-06T21:30:52.154Z,14.2
2023-05-06T21:32:56.050Z,15.8
2023-05-06T21:34:59.930Z,15.2
2023-05-06T21:37:03.879Z,15.6
2023-05-06T21:39:07.823Z,19
2023-05-06T21:41:11.734Z,19.2
2023-05-06T21:43:15.644Z,22.3
2023-05-06T21:45:22.383Z,34.8
2023-05-06T21:47:26.319Z,18.3
2023-05-06T21:49:30.241Z,30.8
2023-05-06T22:03:00.060Z,30.6
2023-05-06T22:05:03.887Z,25.5
2023-05-06T22:09:11.714Z,20.2
2023-05-06T22:11:15.630Z,26.1
2023-05-06T22:15:26.289Z,19.4
2023-05-06T22:17:30.283Z,37.1
2023-05-06T22:23:41.985Z,18.3
2023-05-06T22:25:45.883Z,17.7
2023-05-06T22:32:00.582Z,19
2023-05-06T22:36:08.294Z,26.8
2023-05-06T22:38:12.218Z,23.1
2023-05-06T22:44:26.803Z,24.8
2023-05-06T22:46:30.763Z,26.9
2023-05-06T22:49:00.367Z,25.2
2023-05-06T22:57:18.898Z,25.4
2023-05-06T23:09:45.189Z,19.8
2023-05-06T23:11:49.095Z,22.8
2023-05-06T23:15:56.968Z,21.1
2023-05-06T23:18:00.916Z,20.4
2023-05-06T23:20:04.804Z,62.4
2023-05-06T23:22:08.744Z,22.9
2023-05-06T23:26:19.390Z,22.5
2023-05-06T23:28:23.319Z,17.1
2023-05-06T23:30:27.221Z,24.4
2023-05-06T23:32:31.178Z,21
2023-05-06T23:34:35.080Z,23.4
2023-05-06T23:36:38.988Z,19.5
2023-05-06T23:38:45.720Z,24
2023-05-06T23:40:49.719Z,22.8
2023-05-06T23:43:56.960Z,19.3
2023-05-06T23:46:00.901Z,21
2023-05-06T23:48:04.850Z,22.9
2023-05-06T23:52:15.455Z,15.4
2023-05-06T23:54:19.383Z,18
2023-05-06T23:56:23.287Z,16.4
2023-05-06T23:58:27.214Z,15.5
